Ana Sayfa
METAR-TAF:

METAR-TAF

Havaalanları :

Cocos Adaları, Avustralya

Enlem: 12-11S, Boylam: 096-49E, yükseklik: 3 m

Güncel hava durumu gözlemi

Rapor saat 04:00 UTC de 33 dakika önce yapıldı.
Rüzgar doğudan 12 kt
Sıcaklık 27°C
Nem 74%
Basınç 1015 hPa
Görüş mesafesi 10 km veya daha fazla
2500 ft yükseklikte parçalı bulutlu
6100 ft yükseklikte parçalı bulutlu
7200 ft yükseklikte çok bulutlu

METAR: YPCC 160400Z AUTO 10012KT 9999 // SCT025 SCT061 OVC072 27/22 Q1015

Saat: 11:03 (04:33 UTC)

Tahmin

Rapor saat 23:11 UTC de 5 saat ve 22 dakika önce yapıldı.
Ayın 16'si saat 00 UTC'den ayın 16'si saat 24 UTC'ye kadar geçerli Tahmin
Rüzgar doğudan 15 kt ve 25 kt'a kadar ani rüzgarlar
Görüş mesafesi: 3000 m
2000 ft yükseklikte parçalı bulutlu
3500 ft yükseklikte parçalı çok bulutlu
1200 ft yükseklikte parçalı çok bulutlu
hafif sağanak yağmurlar, sağanak yağmurlar

TAF: YPCC 152311Z 1600/1624 10017KT 9999 -SHRA SCT020 BKN035 INTER 1600/1624 10015G25KT 3000 SHRA BKN012

4.000'den fazla havaalanı için hava durumu gözlemleri ve tahminleri (METAR ve TAF raporları).

Kullanılabilir istasyonlar harita üzerinde sarı ve kırmızı noktalarla gösterilir.

İstasyonun adını görmek için fareyi noktanın üzerinde gezdirin.

Sonrasında hava gözlem ve tahminlerini görmek için tıklayın.

Haritayı değiştirmek için: yaklaştırmak için siyah artı işaretli yeşil düğmeye ve uzaklaştırmak için de eksi işaretli düğmeye hızla tıklayın; bitişik haritalar için yeşil okları kullanın.


METAR-TAF: